Time;durP1;ratioP1;P1;durP2;ratioP2;P2;SDS_P1;SDS_P2;PMS_P1;PMS_P2;Temp;Humidity;BMP_temperature;BMP_pressure;BME280_temperature;BME280_humidity;BME280_pressure;Samples;Min_cycle;Max_cycle;Signal;HPM_P1;HPM_P2
2022/08/05 00:01:20;;;;;;;10.77;9.87;;;27.20;75.60;;;;;;4960781;29;20513;-80
2022/08/05 00:03:46;;;;;;;12.40;11.10;;;27.30;75.80;;;;;;4961043;28;20491;-80
2022/08/05 00:06:14;;;;;;;12.37;11.10;;;27.20;76.00;;;;;;4960606;29;20452;-80
2022/08/05 00:08:41;;;;;;;12.63;10.47;;;27.20;76.70;;;;;;4961016;29;20979;-80
2022/08/05 00:11:12;;;;;;;12.60;10.63;;;27.10;76.80;;;;;;4960603;29;20451;-80
2022/08/05 00:13:40;;;;;;;11.03;9.93;;;27.00;77.00;;;;;;4960485;28;20487;-80
2022/08/05 00:16:09;;;;;;;11.07;10.00;;;27.00;77.90;;;;;;4960353;29;20456;-80
2022/08/05 00:18:36;;;;;;;10.83;9.53;;;27.00;78.40;;;;;;4960236;29;20475;-80
2022/08/05 00:21:03;;;;;;;14.47;10.70;;;26.90;78.70;;;;;;4958942;29;20440;-81
2022/08/05 00:23:30;;;;;;;16.70;10.50;;;26.90;79.50;;;;;;4959257;28;20511;-81
2022/08/05 00:25:56;;;;;;;11.63;10.40;;;26.80;80.10;;;;;;4961106;29;20463;-80
2022/08/05 00:28:24;;;;;;;12.93;10.23;;;26.80;81.00;;;;;;4963214;28;20457;-81
2022/08/05 00:30:51;;;;;;;14.30;10.63;;;26.70;81.20;;;;;;4962419;28;20456;-81
2022/08/05 00:33:18;;;;;;;10.93;9.93;;;26.70;81.70;;;;;;4962174;28;20466;-81
2022/08/05 00:35:44;;;;;;;12.03;10.80;;;26.60;82.20;;;;;;4960500;28;20478;-81
2022/08/05 00:38:11;;;;;;;13.37;10.83;;;26.60;82.70;;;;;;4960157;28;20454;-81
2022/08/05 00:40:47;;;;;;;12.13;10.93;;;26.60;83.20;;;;;;4963947;28;20460;-81
2022/08/05 00:43:14;;;;;;;11.50;10.33;;;26.60;83.60;;;;;;4962332;28;20491;-81
2022/08/05 00:45:42;;;;;;;11.60;10.40;;;26.60;83.70;;;;;;4959772;28;20456;-81
2022/08/05 00:48:10;;;;;;;12.87;11.13;;;26.50;84.30;;;;;;4959523;28;20490;-81
2022/08/05 00:50:37;;;;;;;10.40;9.60;;;26.60;84.50;;;;;;4959805;28;20445;-81
2022/08/05 00:53:03;;;;;;;11.40;10.30;;;26.50;85.10;;;;;;4958932;28;20475;-81
2022/08/05 00:55:30;;;;;;;10.93;9.80;;;26.50;85.50;;;;;;4958769;28;20511;-81
2022/08/05 00:57:57;;;;;;;12.03;7.93;;;26.50;85.30;;;;;;4958371;29;20460;-81
2022/08/05 01:00:23;;;;;;;8.90;8.00;;;26.50;84.80;;;;;;4961145;29;20873;-81
2022/08/05 01:02:51;;;;;;;8.43;7.63;;;26.40;85.00;;;;;;4960074;28;20473;-81
2022/08/05 01:05:18;;;;;;;8.30;7.60;;;26.40;85.60;;;;;;4959428;28;20475;-81
2022/08/05 01:07:45;;;;;;;9.23;8.33;;;26.40;85.30;;;;;;4959780;28;20838;-81
2022/08/05 01:10:13;;;;;;;7.83;6.30;;;26.40;84.90;;;;;;4964823;28;20652;-81
2022/08/05 01:12:46;;;;;;;7.87;7.07;;;26.40;81.90;;;;;;4972022;28;20489;-81
2022/08/05 01:15:17;;;;;;;6.93;6.20;;;26.50;81.50;;;;;;4964562;28;20954;-81
2022/08/05 01:17:48;;;;;;;5.63;5.00;;;26.50;73.90;;;;;;4960612;28;20477;-81
2022/08/05 01:20:26;;;;;;;4.97;4.00;;;26.50;69.50;;;;;;4963386;28;20457;-81
2022/08/05 01:23:06;;;;;;;7.53;4.63;;;26.50;66.10;;;;;;4961546;28;20467;-81
2022/08/05 01:25:47;;;;;;;7.40;4.53;;;26.60;64.80;;;;;;4959572;28;20505;-81
2022/08/05 01:28:18;;;;;;;4.73;4.00;;;26.60;64.10;;;;;;4959281;28;20551;-81
2022/08/05 01:30:50;;;;;;;4.00;3.60;;;26.60;63.40;;;;;;4959226;28;20447;-81
2022/08/05 01:33:21;;;;;;;3.90;3.53;;;26.60;63.30;;;;;;4959892;28;20528;-81
2022/08/05 01:35:50;;;;;;;3.47;2.90;;;26.60;63.50;;;;;;4972570;28;20949;-81
2022/08/05 01:38:18;;;;;;;6.57;3.47;;;26.60;64.10;;;;;;4961588;28;20452;-81
2022/08/05 01:40:47;;;;;;;8.47;3.70;;;26.60;64.60;;;;;;4959228;28;20828;-81
2022/08/05 01:43:16;;;;;;;5.37;3.80;;;26.60;65.00;;;;;;4958686;28;21027;-81
2022/08/05 01:45:43;;;;;;;6.53;4.40;;;26.50;65.30;;;;;;4958714;28;20460;-81
2022/08/05 01:48:12;;;;;;;6.87;4.00;;;26.50;65.70;;;;;;4959343;28;20446;-81
2022/08/05 01:50:40;;;;;;;5.10;3.87;;;26.60;66.00;;;;;;4958773;28;20523;-81
2022/08/05 01:53:11;;;;;;;4.47;3.70;;;26.50;66.50;;;;;;4959114;28;20480;-81
2022/08/05 01:55:39;;;;;;;6.77;3.40;;;26.50;66.90;;;;;;4974260;28;20444;-81
2022/08/05 01:58:09;;;;;;;4.93;3.87;;;26.50;67.20;;;;;;4972352;29;20456;-81
2022/08/05 02:00:41;;;;;;;6.77;3.73;;;26.40;67.70;;;;;;4959534;28;20452;-80
2022/08/05 02:03:11;;;;;;;5.50;4.03;;;26.40;67.90;;;;;;4959714;28;20468;-80
2022/08/05 02:05:40;;;;;;;3.83;3.00;;;26.30;68.10;;;;;;4959330;28;20876;-80
2022/08/05 02:08:07;;;;;;;3.73;3.27;;;26.30;68.50;;;;;;4959327;28;20453;-80
2022/08/05 02:10:39;;;;;;;11.13;4.50;;;26.40;68.70;;;;;;4958062;28;20533;-82
2022/08/05 02:13:13;;;;;;;7.77;3.40;;;26.30;68.80;;;;;;4958290;28;20523;-81
2022/08/05 02:15:44;;;;;;;7.50;3.80;;;26.40;69.40;;;;;;4958819;28;20457;-81
2022/08/05 02:18:18;;;;;;;6.00;4.20;;;26.40;69.40;;;;;;4958692;28;20487;-81
2022/08/05 02:20:49;;;;;;;7.60;3.73;;;26.40;69.50;;;;;;4960156;28;20938;-81
2022/08/05 02:23:22;;;;;;;4.67;3.30;;;26.40;70.00;;;;;;4961542;28;20471;-81
2022/08/05 02:25:50;;;;;;;4.67;3.70;;;26.30;70.40;;;;;;4962285;28;20454;-81
2022/08/05 02:28:23;;;;;;;4.43;3.83;;;26.20;70.90;;;;;;4972102;28;20457;-81
2022/08/05 02:30:55;;;;;;;6.07;4.40;;;26.30;71.30;;;;;;4976594;28;20450;-81
2022/08/05 02:33:22;;;;;;;4.23;3.80;;;26.30;71.40;;;;;;4963184;28;20461;-81
2022/08/05 02:35:51;;;;;;;3.97;3.60;;;26.20;71.50;;;;;;4963108;28;20450;-80
2022/08/05 02:38:18;;;;;;;5.87;4.30;;;26.20;71.80;;;;;;4960160;28;20496;-81
2022/08/05 02:40:46;;;;;;;5.97;4.20;;;26.10;72.10;;;;;;4962009;28;20477;-81
2022/08/05 02:43:14;;;;;;;6.87;4.43;;;26.20;72.50;;;;;;4963326;28;20473;-81
2022/08/05 02:45:43;;;;;;;4.77;3.83;;;26.10;72.20;;;;;;4962721;28;20450;-81
2022/08/05 02:48:12;;;;;;;4.47;3.77;;;26.10;72.50;;;;;;4961968;28;20452;-81
2022/08/05 02:50:40;;;;;;;5.07;3.73;;;26.20;72.60;;;;;;4962465;28;20455;-81
2022/08/05 02:53:08;;;;;;;5.27;4.50;;;26.00;73.10;;;;;;4960332;28;20553;-81
2022/08/05 02:55:35;;;;;;;9.47;4.93;;;26.00;73.30;;;;;;4960923;28;20458;-81
2022/08/05 02:58:03;;;;;;;5.67;3.67;;;26.00;73.70;;;;;;4971586;29;20446;-81
2022/08/05 03:00:30;;;;;;;5.03;3.93;;;26.00;73.50;;;;;;4965970;28;20453;-80
2022/08/05 03:02:58;;;;;;;6.80;4.30;;;26.00;73.70;;;;;;4963220;28;20473;-81
2022/08/05 03:05:27;;;;;;;6.93;3.57;;;25.90;74.00;;;;;;4962210;28;20490;-81
2022/08/05 03:07:54;;;;;;;6.33;5.30;;;25.90;74.30;;;;;;4959189;28;20510;-81
2022/08/05 03:10:23;;;;;;;5.03;3.70;;;25.90;74.50;;;;;;4961562;28;20478;-81
2022/08/05 03:12:49;;;;;;;6.87;5.40;;;25.90;74.70;;;;;;4974517;28;20484;-80
2022/08/05 03:15:16;;;;;;;11.93;4.33;;;25.90;75.00;;;;;;4970688;28;20449;-81
2022/08/05 03:17:43;;;;;;;5.97;4.40;;;25.80;75.20;;;;;;4979164;28;20449;-81
2022/08/05 03:20:10;;;;;;;10.57;4.10;;;25.90;75.50;;;;;;4979434;28;20464;-81
2022/08/05 03:22:38;;;;;;;9.57;5.40;;;25.90;75.70;;;;;;4974142;28;20463;-80
2022/08/05 03:25:06;;;;;;;5.80;4.40;;;25.80;75.90;;;;;;4969743;29;20493;-80
2022/08/05 03:27:33;;;;;;;7.13;4.30;;;25.80;76.10;;;;;;4980165;28;20433;-80
2022/08/05 03:29:59;;;;;;;8.33;4.20;;;25.80;76.00;;;;;;4979344;28;20441;-80
2022/08/05 03:32:26;;;;;;;5.97;4.30;;;25.80;76.00;;;;;;4969833;28;20461;-81
2022/08/05 03:34:53;;;;;;;7.27;5.00;;;25.80;76.40;;;;;;4961713;28;20442;-81
2022/08/05 03:37:20;;;;;;;7.37;4.93;;;25.80;76.60;;;;;;4960918;28;21005;-81
2022/08/05 03:39:57;;;;;;;8.90;4.17;;;25.80;76.70;;;;;;4961055;28;20833;-81
2022/08/05 03:42:24;;;;;;;9.30;4.40;;;25.80;76.90;;;;;;4960986;28;20476;-81
2022/08/05 03:44:50;;;;;;;5.47;4.43;;;25.70;77.20;;;;;;4960654;28;20496;-81
2022/08/05 03:47:17;;;;;;;5.27;3.97;;;25.70;77.40;;;;;;4960891;28;20976;-81
2022/08/05 03:49:44;;;;;;;9.53;5.10;;;25.60;77.80;;;;;;4961178;28;20453;-81
2022/08/05 03:52:17;;;;;;;7.73;4.47;;;25.60;78.00;;;;;;4960914;28;20449;-81
2022/08/05 03:54:52;;;;;;;8.07;4.50;;;25.50;78.30;;;;;;4960767;28;20442;-81
2022/08/05 03:57:24;;;;;;;5.83;4.70;;;25.50;78.70;;;;;;4960837;28;20445;-81
2022/08/05 03:59:56;;;;;;;9.03;4.93;;;25.50;78.80;;;;;;4960379;28;20454;-81
2022/08/05 04:02:26;;;;;;;9.33;5.27;;;25.50;79.00;;;;;;4960894;28;20469;-81
2022/08/05 04:04:53;;;;;;;5.27;4.30;;;25.40;79.30;;;;;;4960189;28;21017;-81
2022/08/05 04:07:21;;;;;;;11.30;5.10;;;25.40;79.50;;;;;;4960212;28;20453;-81
2022/08/05 04:09:48;;;;;;;9.07;4.20;;;25.30;79.70;;;;;;4960688;28;20457;-81
2022/08/05 04:12:14;;;;;;;5.33;4.17;;;25.30;79.90;;;;;;4967494;28;20833;-81
2022/08/05 04:14:43;;;;;;;6.27;5.10;;;25.40;80.10;;;;;;4972546;29;20672;-81
2022/08/05 04:17:10;;;;;;;6.63;4.40;;;25.30;80.40;;;;;;4967056;28;20458;-81
2022/08/05 04:19:42;;;;;;;5.50;4.60;;;25.30;80.60;;;;;;4959935;28;20548;-81
2022/08/05 04:22:09;;;;;;;9.90;5.33;;;25.30;80.80;;;;;;4961153;28;21025;-80
2022/08/05 04:24:35;;;;;;;11.50;5.00;;;25.30;80.70;;;;;;4960831;28;20571;-81
2022/08/05 04:27:02;;;;;;;10.73;5.83;;;25.20;81.50;;;;;;4959777;28;20457;-81
2022/08/05 04:29:29;;;;;;;7.70;6.10;;;25.10;82.10;;;;;;4961361;28;20873;-81
2022/08/05 04:31:57;;;;;;;13.30;5.33;;;25.10;82.80;;;;;;4962343;28;20456;-81
2022/08/05 04:34:24;;;;;;;13.13;6.83;;;25.10;82.70;;;;;;4966675;28;20473;-80
2022/08/05 04:36:50;;;;;;;15.23;5.87;;;25.10;83.00;;;;;;4963840;28;20450;-80
2022/08/05 04:39:17;;;;;;;10.20;6.30;;;25.10;83.30;;;;;;4963333;28;20453;-81
2022/08/05 04:41:44;;;;;;;9.97;7.20;;;25.00;83.60;;;;;;4974215;28;20516;-80
2022/08/05 04:44:11;;;;;;;14.67;8.03;;;25.00;84.00;;;;;;4977586;28;20477;-81
2022/08/05 04:46:38;;;;;;;11.93;7.00;;;25.10;84.20;;;;;;4970694;29;20445;-81
2022/08/05 04:49:06;;;;;;;9.40;6.67;;;25.20;84.30;;;;;;4960373;28;20500;-81
2022/08/05 04:51:33;;;;;;;13.40;8.70;;;25.20;84.30;;;;;;4960755;28;20579;-81
2022/08/05 04:54:00;;;;;;;11.73;6.20;;;25.20;84.60;;;;;;4959423;28;20474;-81
2022/08/05 04:56:27;;;;;;;8.20;6.77;;;25.30;84.20;;;;;;4959476;28;20449;-80
2022/08/05 04:58:54;;;;;;;7.63;6.60;;;25.20;84.20;;;;;;4959460;28;20449;-82
2022/08/05 05:01:20;;;;;;;9.00;7.30;;;25.20;84.50;;;;;;4959348;28;20458;-81
2022/08/05 05:03:47;;;;;;;12.30;7.20;;;25.20;84.80;;;;;;4959311;28;20476;-81
2022/08/05 05:06:15;;;;;;;14.60;6.37;;;25.20;85.10;;;;;;4959641;28;20626;-81
2022/08/05 05:08:42;;;;;;;12.40;6.83;;;25.30;84.90;;;;;;4959263;28;20464;-81
2022/08/05 05:11:08;;;;;;;8.20;5.43;;;25.20;85.30;;;;;;4959877;28;21032;-81
2022/08/05 05:13:35;;;;;;;9.77;5.40;;;25.30;85.70;;;;;;5011899;23;20495;-82
2022/08/05 05:16:02;;;;;;;8.77;5.03;;;25.30;85.20;;;;;;5003838;28;20474;-83
2022/08/05 05:18:28;;;;;;;8.60;4.87;;;25.40;84.80;;;;;;5003036;28;20470;-83
2022/08/05 05:20:55;;;;;;;6.50;5.20;;;25.60;84.00;;;;;;5002342;28;20472;-85
2022/08/05 05:23:23;;;;;;;9.03;4.83;;;26.10;82.90;;;;;;5002767;28;20476;-84
2022/08/05 05:25:50;;;;;;;5.97;4.27;;;26.60;79.90;;;;;;5003260;28;20631;-85
2022/08/05 05:28:16;;;;;;;5.93;5.10;;;27.20;77.90;;;;;;5005729;28;20453;-82
2022/08/05 05:30:43;;;;;;;8.80;5.07;;;27.60;76.00;;;;;;5009443;28;20494;-84
2022/08/05 05:33:10;;;;;;;7.37;4.93;;;28.10;73.90;;;;;;5007106;28;20525;-84
2022/08/05 05:35:36;;;;;;;9.23;5.57;;;28.50;72.10;;;;;;5003525;28;20448;-84
2022/08/05 05:38:05;;;;;;;16.30;5.13;;;28.90;70.50;;;;;;5002990;28;20448;-84
2022/08/05 05:40:34;;;;;;;10.13;5.40;;;29.20;69.10;;;;;;5002926;28;20468;-83
2022/08/05 05:43:01;;;;;;;5.20;4.53;;;29.50;67.80;;;;;;5002916;28;20473;-84
2022/08/05 05:45:27;;;;;;;7.57;6.37;;;29.70;66.70;;;;;;5003646;28;20491;-84
2022/08/05 05:47:54;;;;;;;10.30;6.63;;;30.10;65.20;;;;;;5002721;28;20454;-84
2022/08/05 05:50:21;;;;;;;7.53;5.03;;;30.30;64.60;;;;;;5002210;28;20451;-84
2022/08/05 05:52:47;;;;;;;5.40;4.70;;;30.50;64.00;;;;;;5000491;28;20808;-84
2022/08/05 05:55:16;;;;;;;11.07;5.40;;;30.80;62.70;;;;;;4999491;28;20450;-84
2022/08/05 05:57:46;;;;;;;8.10;5.10;;;31.20;61.40;;;;;;4999493;28;20466;-84
2022/08/05 06:00:15;;;;;;;9.87;6.20;;;31.30;60.60;;;;;;5000363;28;20456;-85
2022/08/05 06:02:42;;;;;;;5.80;4.97;;;31.60;60.00;;;;;;4998557;28;21750;-84
2022/08/05 06:05:11;;;;;;;8.17;5.53;;;31.90;59.10;;;;;;4998228;28;20488;-84
2022/08/05 06:07:39;;;;;;;6.33;5.17;;;32.10;58.10;;;;;;4995987;28;20452;-84
2022/08/05 06:10:08;;;;;;;5.80;4.77;;;32.20;57.50;;;;;;4997903;28;20462;-84
2022/08/05 06:12:36;;;;;;;5.50;5.10;;;32.60;56.90;;;;;;4998193;28;20509;-84
2022/08/05 06:15:06;;;;;;;6.70;4.63;;;32.60;56.60;;;;;;4998397;28;20453;-83
2022/08/05 06:17:33;;;;;;;7.03;5.13;;;32.90;55.90;;;;;;4997698;28;20493;-84
2022/08/05 06:20:00;;;;;;;6.50;5.30;;;33.20;55.40;;;;;;4997819;28;20448;-85
2022/08/05 06:22:28;;;;;;;6.53;5.30;;;33.20;54.70;;;;;;5005048;28;20438;-83
2022/08/05 06:24:55;;;;;;;8.10;5.07;;;32.60;56.00;;;;;;5014958;28;20492;-82
2022/08/05 06:27:22;;;;;;;5.33;4.83;;;32.80;55.70;;;;;;5002191;28;20480;-84
2022/08/05 06:29:48;;;;;;;5.60;5.00;;;33.20;54.90;;;;;;4999754;28;20454;-83
2022/08/05 06:32:16;;;;;;;5.23;4.73;;;33.70;53.80;;;;;;4999035;28;20503;-83
2022/08/05 06:34:43;;;;;;;7.30;5.00;;;34.10;52.70;;;;;;5002173;28;20474;-83
2022/08/05 06:37:10;;;;;;;6.00;4.60;;;34.20;52.10;;;;;;5010792;28;20448;-83
2022/08/05 06:39:38;;;;;;;7.07;4.93;;;34.60;51.40;;;;;;5009633;28;20966;-83
2022/08/05 06:42:05;;;;;;;7.47;5.07;;;35.20;50.60;;;;;;4998856;28;20890;-83
2022/08/05 06:44:32;;;;;;;5.60;4.70;;;35.20;49.60;;;;;;5000945;28;20469;-83
2022/08/05 06:46:59;;;;;;;5.10;4.60;;;35.40;49.30;;;;;;5002419;28;20451;-83
2022/08/05 06:49:27;;;;;;;5.10;4.60;;;35.70;48.90;;;;;;5003659;28;20459;-83
2022/08/05 06:51:54;;;;;;;5.00;4.60;;;35.90;48.20;;;;;;4994291;28;20522;-83
2022/08/05 06:54:20;;;;;;;11.57;4.17;;;35.80;47.80;;;;;;4994103;28;20849;-83
2022/08/05 06:56:47;;;;;;;4.37;3.97;;;36.20;46.90;;;;;;5000793;28;20453;-83
2022/08/05 06:59:14;;;;;;;4.90;4.27;;;36.80;46.10;;;;;;4996348;28;20450;-84
2022/08/05 07:01:41;;;;;;;7.23;4.70;;;37.00;45.50;;;;;;4994205;28;20458;-83
2022/08/05 07:04:07;;;;;;;5.83;4.00;;;37.20;45.10;;;;;;4994295;28;20481;-84
2022/08/05 07:06:35;;;;;;;4.97;3.77;;;37.60;44.30;;;;;;4994488;28;20859;-84
2022/08/05 07:09:02;;;;;;;7.57;4.07;;;38.00;43.40;;;;;;5003649;28;20454;-84
2022/08/05 07:11:29;;;;;;;4.77;3.70;;;37.30;43.80;;;;;;5004717;28;20454;-84
2022/08/05 07:16:50;;;;;;;4.93;3.77;;;35.20;46.90;;;;;;5000450;28;20430;-83
2022/08/05 07:19:17;;;;;;;5.60;4.23;;;34.50;48.00;;;;;;4999733;28;20456;-84
2022/08/05 07:21:46;;;;;;;4.37;4.00;;;33.90;49.60;;;;;;5000376;28;20454;-84
2022/08/05 07:24:13;;;;;;;5.30;4.10;;;34.50;49.30;;;;;;4999088;28;20477;-83
2022/08/05 07:26:40;;;;;;;4.67;4.27;;;35.50;47.80;;;;;;4998173;28;20489;-84
2022/08/05 07:29:07;;;;;;;5.50;3.97;;;36.40;46.20;;;;;;4997559;28;20454;-84
2022/08/05 07:31:34;;;;;;;10.20;4.23;;;37.00;45.00;;;;;;4997693;28;20458;-84
2022/08/05 07:34:01;;;;;;;5.67;4.30;;;37.70;44.40;;;;;;4996682;28;20521;-84
2022/08/05 07:36:28;;;;;;;4.83;4.43;;;38.40;43.30;;;;;;4996072;28;21141;-84
2022/08/05 07:38:56;;;;;;;5.00;4.60;;;38.80;42.40;;;;;;4996680;28;20948;-84
2022/08/05 07:41:24;;;;;;;5.00;4.13;;;38.80;42.10;;;;;;4997310;28;20462;-84
2022/08/05 07:43:51;;;;;;;7.20;3.97;;;39.20;41.30;;;;;;4997363;28;20891;-84
2022/08/05 07:46:18;;;;;;;4.53;4.10;;;39.40;40.70;;;;;;5017020;28;20491;-82
2022/08/05 07:48:45;;;;;;;3.97;3.67;;;39.90;39.80;;;;;;5012377;28;20515;-83
2022/08/05 07:51:11;;;;;;;3.80;3.40;;;39.90;39.50;;;;;;4998691;28;20452;-83
2022/08/05 07:53:38;;;;;;;3.13;2.87;;;39.60;39.30;;;;;;4996359;28;20960;-83
2022/08/05 07:56:06;;;;;;;5.03;4.53;;;39.30;38.70;;;;;;4992336;28;20448;-84
2022/08/05 07:58:33;;;;;;;4.40;3.50;;;39.40;38.80;;;;;;4975923;28;20459;-84
2022/08/05 08:01:00;;;;;;;5.30;3.57;;;40.00;38.30;;;;;;4975679;28;20464;-85
2022/08/05 08:03:26;;;;;;;4.37;3.97;;;40.50;37.50;;;;;;4977295;28;20468;-84
2022/08/05 08:05:53;;;;;;;6.80;3.27;;;40.90;36.80;;;;;;4996514;28;20523;-84
2022/08/05 08:08:20;;;;;;;4.67;3.60;;;41.30;36.50;;;;;;4997258;28;20445;-85
2022/08/05 08:10:47;;;;;;;2.83;2.63;;;41.80;35.40;;;;;;4996098;28;20455;-85
2022/08/05 08:13:15;;;;;;;3.00;2.80;;;41.80;34.10;;;;;;4979181;28;20576;-85
2022/08/05 08:15:42;;;;;;;3.93;2.90;;;41.40;33.80;;;;;;4977925;28;20446;-86
2022/08/05 08:18:08;;;;;;;3.37;3.07;;;41.10;33.80;;;;;;4982853;28;20456;-86
2022/08/05 08:20:35;;;;;;;4.07;3.00;;;41.00;34.20;;;;;;4984760;28;20945;-87
2022/08/05 08:23:02;;;;;;;3.30;3.07;;;41.00;33.80;;;;;;4984307;28;20470;-87
2022/08/05 08:25:29;;;;;;;2.67;2.50;;;41.10;33.40;;;;;;4987536;28;20971;-88
2022/08/05 08:27:58;;;;;;;3.70;2.60;;;41.30;32.40;;;;;;4988433;28;20449;-87
2022/08/05 08:30:26;;;;;;;2.23;2.03;;;41.40;32.10;;;;;;4989019;28;20519;-88
2022/08/05 08:32:53;;;;;;;3.20;2.90;;;41.10;32.00;;;;;;4988230;28;20472;-85
2022/08/05 08:35:19;;;;;;;4.77;2.47;;;41.00;32.10;;;;;;4987756;28;20538;-86
2022/08/05 08:37:46;;;;;;;5.43;3.70;;;41.30;32.00;;;;;;4993009;28;20448;-84
2022/08/05 08:40:13;;;;;;;6.17;3.17;;;41.40;31.90;;;;;;5004531;28;20464;-85
2022/08/05 08:42:40;;;;;;;5.50;3.03;;;42.20;31.50;;;;;;5002803;28;20445;-85
2022/08/05 08:45:09;;;;;;;6.23;2.97;;;42.70;30.70;;;;;;4989593;28;20451;-86
2022/08/05 08:47:38;;;;;;;2.40;2.20;;;42.40;30.80;;;;;;4986409;28;20969;-85
2022/08/05 08:50:06;;;;;;;6.00;3.00;;;42.70;30.40;;;;;;4987865;28;20795;-85
2022/08/05 08:52:35;;;;;;;3.60;2.67;;;43.00;30.00;;;;;;4985403;28;20452;-85
2022/08/05 08:55:03;;;;;;;2.80;2.60;;;43.10;29.90;;;;;;4987630;28;20448;-86
2022/08/05 08:57:30;;;;;;;2.53;2.33;;;42.50;29.80;;;;;;4988677;28;20519;-84
2022/08/05 08:59:58;;;;;;;2.80;2.60;;;42.90;30.00;;;;;;4990831;28;20452;-85
2022/08/05 09:02:25;;;;;;;3.50;2.47;;;43.60;29.50;;;;;;5008095;28;20425;-85
2022/08/05 09:04:53;;;;;;;5.00;2.80;;;43.50;29.60;;;;;;4984146;28;21224;-85
2022/08/05 09:07:20;;;;;;;3.43;2.63;;;44.00;29.10;;;;;;4982846;28;21290;-86
2022/08/05 09:09:47;;;;;;;4.10;2.40;;;44.60;28.60;;;;;;4984734;28;20457;-85
2022/08/05 09:12:14;;;;;;;4.50;2.50;;;44.80;28.40;;;;;;4983210;28;20504;-86
2022/08/05 09:14:41;;;;;;;2.87;2.67;;;45.10;27.70;;;;;;4983948;28;20477;-85
2022/08/05 09:17:11;;;;;;;2.77;2.57;;;45.00;28.00;;;;;;4983044;28;20460;-86
2022/08/05 09:19:40;;;;;;;2.73;2.53;;;46.00;27.40;;;;;;4983831;28;20538;-87
2022/08/05 09:22:08;;;;;;;2.83;2.63;;;46.20;26.80;;;;;;4983993;28;20461;-87
2022/08/05 09:24:36;;;;;;;2.20;1.97;;;46.40;26.40;;;;;;4989919;28;20519;-88
2022/08/05 09:27:08;;;;;;;5.00;2.43;;;46.20;26.30;;;;;;4982566;28;20589;-86
2022/08/05 09:29:41;;;;;;;2.63;2.43;;;46.00;26.50;;;;;;4983882;28;20524;-86
2022/08/05 09:32:09;;;;;;;3.27;2.37;;;46.20;26.60;;;;;;4983192;28;20454;-86
2022/08/05 09:34:55;;;;;;;5.90;2.80;;;45.80;26.70;;;;;;4980271;28;20812;-86
2022/08/05 09:37:24;;;;;;;2.43;2.20;;;45.50;26.90;;;;;;4991398;28;20435;-86
2022/08/05 09:39:51;;;;;;;2.53;2.33;;;45.40;26.60;;;;;;4994324;28;20451;-86
2022/08/05 09:42:19;;;;;;;2.10;1.90;;;45.10;26.90;;;;;;5003274;28;20441;-85
2022/08/05 09:44:50;;;;;;;2.97;2.73;;;45.00;27.20;;;;;;5005761;28;20463;-84
2022/08/05 09:47:21;;;;;;;7.70;2.60;;;45.80;26.60;;;;;;4987878;28;20484;-91
2022/08/05 09:49:51;;;;;;;4.93;2.90;;;44.70;26.90;;;;;;4983867;28;20445;-86
2022/08/05 09:52:19;;;;;;;2.47;2.27;;;43.50;28.00;;;;;;4983190;28;20448;-86
2022/08/05 09:54:57;;;;;;;3.63;2.80;;;44.20;27.50;;;;;;4982673;28;20476;-86
2022/08/05 09:57:32;;;;;;;2.60;2.37;;;44.50;27.30;;;;;;4982732;28;20436;-87
2022/08/05 10:00:01;;;;;;;3.27;2.40;;;44.40;27.00;;;;;;4983416;28;20464;-86
2022/08/05 10:02:31;;;;;;;2.40;2.20;;;44.40;27.70;;;;;;4989733;28;20437;-84
2022/08/05 10:05:04;;;;;;;3.47;2.80;;;45.60;26.70;;;;;;4988732;28;20440;-86
2022/08/05 10:07:44;;;;;;;2.90;2.60;;;46.30;26.10;;;;;;4994788;28;20472;-86
2022/08/05 10:10:12;;;;;;;2.90;2.50;;;45.20;26.60;;;;;;4985275;28;20455;-87
2022/08/05 10:12:44;;;;;;;3.30;2.30;;;44.30;27.50;;;;;;4981961;28;20913;-84
2022/08/05 10:15:15;;;;;;;2.70;2.50;;;44.80;27.20;;;;;;4982369;28;20456;-85
2022/08/05 10:17:42;;;;;;;3.83;2.80;;;45.00;27.00;;;;;;4982660;28;20475;-84
2022/08/05 10:20:11;;;;;;;2.83;2.50;;;44.90;27.00;;;;;;5007202;28;20445;-85
2022/08/05 10:22:40;;;;;;;3.07;2.57;;;44.80;26.90;;;;;;5001003;28;20544;-85
2022/08/05 10:25:08;;;;;;;3.33;2.87;;;43.40;27.40;;;;;;4982606;28;20453;-86
2022/08/05 10:27:38;;;;;;;3.27;2.63;;;43.40;28.00;;;;;;4982205;28;20551;-85
2022/08/05 10:30:06;;;;;;;2.53;2.30;;;44.60;27.60;;;;;;4983375;28;21138;-86
2022/08/05 10:32:33;;;;;;;3.07;2.77;;;45.10;27.00;;;;;;4982640;28;20448;-85
2022/08/05 10:35:01;;;;;;;3.20;2.40;;;44.70;26.70;;;;;;4983794;28;20473;-86
2022/08/05 10:37:30;;;;;;;2.53;2.33;;;46.00;26.50;;;;;;4983970;28;20437;-88
2022/08/05 10:39:59;;;;;;;3.17;2.97;;;46.70;25.70;;;;;;4991935;28;20452;-85
2022/08/05 10:42:29;;;;;;;3.23;2.30;;;47.20;25.00;;;;;;5008621;28;20417;-85
2022/08/05 10:44:58;;;;;;;2.77;2.50;;;48.10;24.40;;;;;;5001724;28;20831;-88
2022/08/05 10:47:33;;;;;;;2.30;2.10;;;48.10;23.50;;;;;;4986100;28;20495;-88
2022/08/05 10:50:01;;;;;;;3.00;2.80;;;48.10;23.80;;;;;;4987182;28;20871;-89
2022/08/05 10:52:43;;;;;;;2.60;2.40;;;47.70;24.00;;;;;;4986942;28;20502;-85
2022/08/05 10:55:12;;;;;;;4.00;2.90;;;46.70;24.20;;;;;;4987357;28;20457;-84
2022/08/05 10:57:40;;;;;;;2.60;2.20;;;45.80;24.80;;;;;;4986067;28;20531;-84
2022/08/05 11:00:14;;;;;;;2.30;2.10;;;44.90;25.50;;;;;;4987173;28;20902;-87
2022/08/05 11:03:14;;;;;;;2.30;2.10;;;44.80;26.00;;;;;;4986418;28;20453;-87
2022/08/05 11:05:41;;;;;;;2.30;2.10;;;46.00;25.30;;;;;;4985538;28;21562;-87
2022/08/05 11:08:09;;;;;;;4.57;2.70;;;46.10;24.70;;;;;;4988757;28;20484;-85
2022/08/05 11:10:40;;;;;;;4.30;3.00;;;45.60;25.10;;;;;;4991019;28;20884;-86
2022/08/05 11:13:07;;;;;;;3.27;2.40;;;46.30;24.80;;;;;;4989358;28;20518;-86
2022/08/05 11:15:39;;;;;;;2.70;2.50;;;47.20;24.20;;;;;;4986043;28;20510;-86
2022/08/05 11:18:08;;;;;;;3.03;2.83;;;46.70;24.50;;;;;;4988490;28;20882;-84
2022/08/05 11:20:40;;;;;;;2.67;2.40;;;47.70;24.10;;;;;;4988939;28;20445;-84
2022/08/05 11:23:30;;;;;;;3.93;2.03;;;48.30;23.20;;;;;;4988042;28;20558;-84
2022/08/05 11:26:02;;;;;;;2.70;2.50;;;48.20;23.40;;;;;;4985085;28;20809;-85
2022/08/05 11:28:46;;;;;;;2.50;2.30;;;48.00;23.40;;;;;;4984972;28;20482;-85
2022/08/05 11:31:38;;;;;;;2.67;2.40;;;48.50;23.00;;;;;;4984121;28;20448;-85
2022/08/05 11:34:07;;;;;;;2.77;2.47;;;48.80;22.90;;;;;;4983308;28;20475;-84
2022/08/05 11:36:49;;;;;;;2.60;2.40;;;49.20;22.60;;;;;;4992818;28;20440;-85
2022/08/05 11:39:32;;;;;;;3.43;2.60;;;47.20;23.20;;;;;;4993344;28;20444;-85
2022/08/05 11:41:59;;;;;;;2.67;2.47;;;45.10;24.70;;;;;;4992514;28;20490;-84
2022/08/05 11:44:36;;;;;;;2.47;2.27;;;43.40;26.20;;;;;;4992070;28;20466;-85
2022/08/05 11:47:04;;;;;;;2.87;2.67;;;43.30;26.70;;;;;;4998348;28;20479;-86
2022/08/05 11:49:31;;;;;;;2.20;2.00;;;43.70;27.20;;;;;;4997324;28;20436;-84
2022/08/05 11:51:59;;;;;;;3.00;2.80;;;45.30;25.50;;;;;;4989277;28;20440;-85
2022/08/05 11:54:27;;;;;;;2.63;2.40;;;46.60;24.50;;;;;;4984882;28;20463;-85
2022/08/05 11:56:57;;;;;;;6.27;2.60;;;47.10;23.80;;;;;;4985452;28;20484;-85
2022/08/05 11:59:25;;;;;;;3.00;2.70;;;46.30;24.20;;;;;;4985724;28;20795;-86
2022/08/05 12:01:58;;;;;;;3.43;2.30;;;45.20;25.20;;;;;;4985129;28;20441;-85
2022/08/05 12:04:27;;;;;;;4.30;2.87;;;44.50;25.60;;;;;;4985386;28;20462;-85
2022/08/05 12:06:54;;;;;;;4.73;2.77;;;45.70;25.30;;;;;;4986894;28;20483;-85
2022/08/05 12:09:25;;;;;;;3.63;3.37;;;45.70;24.70;;;;;;5002985;28;20463;-84
2022/08/05 12:11:53;;;;;;;3.00;2.70;;;46.00;24.60;;;;;;5010939;28;20443;-83
2022/08/05 12:14:19;;;;;;;2.57;2.37;;;45.60;24.90;;;;;;4997451;28;20473;-84
2022/08/05 12:16:47;;;;;;;3.47;3.17;;;43.50;25.80;;;;;;4989999;28;20444;-84
2022/08/05 12:19:15;;;;;;;3.87;2.53;;;41.00;27.90;;;;;;4991931;28;20448;-84
2022/08/05 12:21:46;;;;;;;4.13;2.83;;;40.50;29.20;;;;;;4994551;28;20444;-84
2022/08/05 12:24:14;;;;;;;2.73;2.53;;;40.20;29.40;;;;;;4994239;28;20468;-84
2022/08/05 12:26:43;;;;;;;3.30;2.83;;;39.40;30.10;;;;;;5003774;28;20495;-83
2022/08/05 12:29:12;;;;;;;2.87;2.67;;;39.00;31.40;;;;;;4993669;28;20458;-84
2022/08/05 12:31:39;;;;;;;3.50;3.20;;;39.90;30.60;;;;;;4992105;28;20483;-84
2022/08/05 12:34:08;;;;;;;3.53;2.70;;;41.20;29.60;;;;;;4991574;28;20870;-84
2022/08/05 12:36:35;;;;;;;3.30;3.00;;;41.80;29.00;;;;;;4993993;28;20565;-85
2022/08/05 12:39:05;;;;;;;3.57;3.27;;;40.80;29.70;;;;;;4992155;28;20445;-85
2022/08/05 12:41:33;;;;;;;3.17;2.87;;;39.00;31.60;;;;;;4991057;28;20451;-84
2022/08/05 12:44:02;;;;;;;3.97;2.90;;;38.00;33.10;;;;;;4992183;28;20476;-84
2022/08/05 12:46:31;;;;;;;5.50;2.77;;;37.60;34.00;;;;;;4989971;28;20943;-85
2022/08/05 12:48:59;;;;;;;3.57;3.27;;;37.70;33.80;;;;;;4990651;28;20441;-84
2022/08/05 12:51:27;;;;;;;3.53;2.90;;;37.20;34.10;;;;;;4989156;28;20454;-84
2022/08/05 12:54:01;;;;;;;4.40;3.10;;;37.50;34.20;;;;;;4990044;28;20494;-84
2022/08/05 12:56:30;;;;;;;4.63;2.87;;;37.90;34.10;;;;;;4989970;28;20525;-84